Time,TemperatureF,DewpointF,PressureIn,WindDirection,WindDirectionDegrees,WindSpeedMPH,WindSpeedGustMPH,Humidity,HourlyPrecipIn,Conditions,Clouds,dailyrainin,SoftwareType,DateUTC
2013-08-15 00:06:00,50.3,30.0,29.89,North,355,2.0,3.0,46,0.00,,,0.00,weatherlink.com 1.10,2013-08-15 06:06:00,
2013-08-15 00:21:00,50.5,30.0,29.89,North,355,1.0,2.0,45,0.00,,,0.00,weatherlink.com 1.10,2013-08-15 06:21:00,
2013-08-15 00:36:00,51.1,30.0,29.89,North,355,0.0,1.0,45,0.00,,,0.00,weatherlink.com 1.10,2013-08-15 06:36:00,
2013-08-15 00:51:00,52.0,33.0,29.88,North,355,0.0,1.0,48,0.00,,,0.00,weatherlink.com 1.10,2013-08-15 06:51:00,
2013-08-15 01:06:00,52.5,35.0,29.88,WSW,249,0.0,2.0,51,0.00,,,0.00,weatherlink.com 1.10,2013-08-15 07:06:00,
2013-08-15 01:21:00,51.7,33.0,29.88,West,269,0.0,3.0,50,0.00,,,0.00,weatherlink.com 1.10,2013-08-15 07:21:00,
2013-08-15 01:36:00,48.8,34.0,29.88,West,269,0.0,1.0,57,0.00,,,0.00,weatherlink.com 1.10,2013-08-15 07:36:00,
2013-08-15 01:52:00,48.1,34.0,29.87,SSW,197,0.0,3.0,59,0.00,,,0.00,weatherlink.com 1.10,2013-08-15 07:52:00,
2013-08-15 02:06:00,47.8,33.0,29.87,SSW,196,0.0,0.0,57,0.00,,,0.00,weatherlink.com 1.10,2013-08-15 08:06:00,
2013-08-15 02:21:00,47.9,33.0,29.87,SSW,196,0.0,3.0,57,0.00,,,0.00,weatherlink.com 1.10,2013-08-15 08:21:00,
2013-08-15 02:36:00,47.5,33.0,29.87,SW,232,0.0,3.0,57,0.00,,,0.00,weatherlink.com 1.10,2013-08-15 08:36:00,
2013-08-15 02:51:00,47.0,33.0,29.86,SW,232,0.0,1.0,58,0.00,,,0.00,weatherlink.com 1.10,2013-08-15 08:51:00,
2013-08-15 03:06:00,47.2,34.0,29.86,SW,232,0.0,0.0,60,0.00,,,0.00,weatherlink.com 1.10,2013-08-15 09:06:00,
2013-08-15 03:21:00,47.5,35.0,29.86,SW,232,0.0,1.0,62,0.00,,,0.00,weatherlink.com 1.10,2013-08-15 09:21:00,
2013-08-15 03:36:00,47.2,35.0,29.86,SW,232,0.0,3.0,64,0.00,,,0.00,weatherlink.com 1.10,2013-08-15 09:36:00,
2013-08-15 03:51:00,47.1,35.0,29.86,SW,232,0.0,0.0,63,0.00,,,0.00,weatherlink.com 1.10,2013-08-15 09:51:00,
2013-08-15 04:07:00,46.0,35.0,29.86,SW,232,0.0,1.0,66,0.00,,,0.00,weatherlink.com 1.10,2013-08-15 10:07:00,
2013-08-15 04:22:00,44.7,36.0,29.86,SW,232,1.0,2.0,72,0.00,,,0.00,weatherlink.com 1.10,2013-08-15 10:22:00,
2013-08-15 04:37:00,44.5,35.0,29.86,SW,232,1.0,3.0,70,0.00,,,0.00,weatherlink.com 1.10,2013-08-15 10:37:00,
2013-08-15 04:52:00,43.8,34.0,29.87,SW,232,0.0,1.0,69,0.00,,,0.00,weatherlink.com 1.10,2013-08-15 10:52:00,
2013-08-15 05:07:00,42.5,34.0,29.86,SW,232,0.0,3.0,71,0.00,,,0.00,weatherlink.com 1.10,2013-08-15 11:07:00,
2013-08-15 05:22:00,42.1,34.0,29.86,WSW,250,1.0,4.0,72,0.00,,,0.00,weatherlink.com 1.10,2013-08-15 11:22:00,
2013-08-15 05:37:00,42.9,33.0,29.86,WSW,250,1.0,3.0,69,0.00,,,0.00,weatherlink.com 1.10,2013-08-15 11:37:00,
2013-08-15 05:52:00,42.8,33.0,29.86,WSW,250,4.0,4.0,69,0.00,,,0.00,weatherlink.com 1.10,2013-08-15 11:52:00,
2013-08-15 06:07:00,42.9,32.0,29.86,WSW,250,0.0,1.0,65,0.00,,,0.00,weatherlink.com 1.10,2013-08-15 12:07:00,
2013-08-15 06:22:00,42.7,34.0,29.87,WSW,250,0.0,1.0,71,0.00,,,0.00,weatherlink.com 1.10,2013-08-15 12:22:00,
2013-08-15 06:37:00,42.4,33.0,29.87,WSW,250,1.0,2.0,69,0.00,,,0.00,weatherlink.com 1.10,2013-08-15 12:37:00,
2013-08-15 06:52:00,41.1,33.0,29.87,SSW,210,0.0,3.0,72,0.00,,,0.00,weatherlink.com 1.10,2013-08-15 12:52:00,
2013-08-15 07:07:00,40.8,33.0,29.87,SSW,213,0.0,1.0,75,0.00,,,0.00,weatherlink.com 1.10,2013-08-15 13:07:00,
2013-08-15 07:22:00,42.9,34.0,29.88,WNW,285,0.0,2.0,71,0.00,,,0.00,weatherlink.com 1.10,2013-08-15 13:22:00,
2013-08-15 07:37:00,44.1,35.0,29.89,WNW,285,0.0,0.0,70,0.00,,,0.00,weatherlink.com 1.10,2013-08-15 13:37:00,
2013-08-15 07:52:00,45.5,37.0,29.89,South,178,0.0,1.0,72,0.00,,,0.00,weatherlink.com 1.10,2013-08-15 13:52:00,
2013-08-15 08:07:00,47.0,36.0,29.89,SSE,155,0.0,1.0,66,0.00,,,0.00,weatherlink.com 1.10,2013-08-15 14:07:00,
2013-08-15 08:22:00,49.0,35.0,29.89,SSE,155,0.0,1.0,58,0.00,,,0.00,weatherlink.com 1.10,2013-08-15 14:22:00,
2013-08-15 08:37:00,51.2,36.0,29.89,SE,146,0.0,1.0,56,0.00,,,0.00,weatherlink.com 1.10,2013-08-15 14:37:00,
2013-08-15 08:53:00,53.3,36.0,29.89,SSE,159,0.0,1.0,53,0.00,,,0.00,weatherlink.com 1.10,2013-08-15 14:53:00,
2013-08-15 09:08:00,56.8,36.0,29.88,SE,126,0.0,1.0,46,0.00,,,0.00,weatherlink.com 1.10,2013-08-15 15:08:00,
2013-08-15 09:23:00,59.5,37.0,29.88,ESE,118,0.0,1.0,44,0.00,,,0.00,weatherlink.com 1.10,2013-08-15 15:23:00,
2013-08-15 09:38:00,62.2,38.0,29.87,ESE,115,0.0,2.0,41,0.00,,,0.00,weatherlink.com 1.10,2013-08-15 15:38:00,
2013-08-15 09:53:00,65.1,35.0,29.86,WSW,247,0.0,4.0,33,0.00,,,0.00,weatherlink.com 1.10,2013-08-15 15:53:00,
2013-08-15 10:08:00,66.9,34.0,29.86,West,263,0.0,4.0,29,0.00,,,0.00,weatherlink.com 1.10,2013-08-15 16:08:00,
2013-08-15 10:38:00,69.0,35.0,29.86,WNW,294,0.0,6.0,29,0.00,,,0.00,weatherlink.com 1.10,2013-08-15 16:38:00,
2013-08-15 10:54:00,70.6,32.0,29.86,West,281,1.0,7.0,24,0.00,,,0.00,weatherlink.com 1.10,2013-08-15 16:54:00,
2013-08-15 11:08:00,69.8,30.0,29.85,WNW,293,10.0,15.0,23,0.00,,,0.00,weatherlink.com 1.10,2013-08-15 17:08:00,
2013-08-15 11:38:00,70.6,28.0,29.85,WSW,242,4.0,20.0,20,0.00,,,0.00,weatherlink.com 1.10,2013-08-15 17:38:00,
2013-08-15 12:08:00,72.2,26.0,29.85,West,263,5.0,14.0,18,0.00,,,0.00,weatherlink.com 1.10,2013-08-15 18:08:00,
2013-08-15 12:38:00,71.0,24.0,29.84,WNW,282,4.0,14.0,17,0.00,,,0.00,weatherlink.com 1.10,2013-08-15 18:38:00,
2013-08-15 13:09:00,73.4,24.0,29.84,NW,321,7.0,13.0,16,0.00,,,0.00,weatherlink.com 1.10,2013-08-15 19:09:00,
2013-08-15 13:24:00,72.4,24.0,29.84,WNW,294,11.0,16.0,16,0.00,,,0.00,weatherlink.com 1.10,2013-08-15 19:24:00,
2013-08-15 13:39:00,70.9,25.0,29.84,NW,305,7.0,17.0,18,0.00,,,0.00,weatherlink.com 1.10,2013-08-15 19:39:00,
2013-08-15 13:54:00,69.2,24.0,29.83,NW,323,1.0,11.0,18,0.00,,,0.00,weatherlink.com 1.10,2013-08-15 19:54:00,
2013-08-15 14:08:00,69.4,24.0,29.83,WNW,297,2.0,9.0,18,0.00,,,0.00,weatherlink.com 1.10,2013-08-15 20:08:00,
2013-08-15 14:23:00,71.3,24.0,29.83,West,279,6.0,14.0,17,0.00,,,0.00,weatherlink.com 1.10,2013-08-15 20:23:00,
2013-08-15 14:38:00,71.9,25.0,29.82,WNW,292,1.0,14.0,17,0.00,,,0.00,weatherlink.com 1.10,2013-08-15 20:38:00,
2013-08-15 14:53:00,72.2,25.0,29.82,WNW,290,4.0,16.0,17,0.00,,,0.00,weatherlink.com 1.10,2013-08-15 20:53:00,
2013-08-15 15:09:00,70.3,23.0,29.82,NW,326,2.0,11.0,17,0.00,,,0.00,weatherlink.com 1.10,2013-08-15 21:09:00,
2013-08-15 15:24:00,73.4,24.0,29.82,West,279,3.0,11.0,16,0.00,,,0.00,weatherlink.com 1.10,2013-08-15 21:24:00,
2013-08-15 15:39:00,74.3,27.0,29.82,WNW,292,4.0,11.0,17,0.00,,,0.00,weatherlink.com 1.10,2013-08-15 21:39:00,
2013-08-15 15:54:00,73.8,28.0,29.81,WNW,302,3.0,8.0,18,0.00,,,0.00,weatherlink.com 1.10,2013-08-15 21:54:00,
2013-08-15 16:09:00,73.9,26.0,29.81,West,271,3.0,17.0,17,0.00,,,0.00,weatherlink.com 1.10,2013-08-15 22:09:00,
2013-08-15 16:24:00,74.2,27.0,29.81,WSW,258,1.0,11.0,17,0.00,,,0.00,weatherlink.com 1.10,2013-08-15 22:24:00,
2013-08-15 16:40:00,71.9,26.0,29.81,West,274,3.0,10.0,18,0.00,,,0.00,weatherlink.com 1.10,2013-08-15 22:40:00,
2013-08-15 17:09:00,72.0,26.0,29.82,West,276,3.0,14.0,18,0.00,,,0.00,weatherlink.com 1.10,2013-08-15 23:09:00,
2013-08-15 17:24:00,72.2,25.0,29.82,WNW,297,3.0,12.0,17,0.00,,,0.00,weatherlink.com 1.10,2013-08-15 23:24:00,
2013-08-15 17:39:00,71.2,27.0,29.82,North,355,4.0,10.0,19,0.00,,,0.00,weatherlink.com 1.10,2013-08-15 23:39:00,
2013-08-15 17:54:00,71.0,28.0,29.82,NW,311,1.0,9.0,20,0.00,,,0.00,weatherlink.com 1.10,2013-08-15 23:54:00,
2013-08-15 18:09:00,70.3,27.0,29.82,NNW,332,1.0,10.0,20,0.00,,,0.00,weatherlink.com 1.10,2013-08-16 00:09:00,
2013-08-15 18:24:00,68.9,29.0,29.82,North,360,2.0,11.0,23,0.00,,,0.00,weatherlink.com 1.10,2013-08-16 00:24:00,
2013-08-15 18:39:00,68.1,29.0,29.81,NNW,331,2.0,7.0,23,0.00,,,0.00,weatherlink.com 1.10,2013-08-16 00:39:00,
2013-08-15 18:54:00,68.2,28.0,29.81,West,274,6.0,13.0,22,0.00,,,0.00,weatherlink.com 1.10,2013-08-16 00:54:00,
2013-08-15 19:09:00,68.1,27.0,29.82,WNW,292,3.0,12.0,21,0.00,,,0.00,weatherlink.com 1.10,2013-08-16 01:09:00,
2013-08-15 19:24:00,67.7,27.0,29.83,NNW,332,2.0,7.0,22,0.00,,,0.00,weatherlink.com 1.10,2013-08-16 01:24:00,
2013-08-15 19:39:00,66.8,29.0,29.83,NNW,339,2.0,7.0,24,0.00,,,0.00,weatherlink.com 1.10,2013-08-16 01:39:00,
2013-08-15 19:54:00,65.4,28.0,29.84,NNW,329,0.0,7.0,24,0.00,,,0.00,weatherlink.com 1.10,2013-08-16 01:54:00,
2013-08-15 20:09:00,63.7,28.0,29.84,West,275,1.0,5.0,26,0.00,,,0.00,weatherlink.com 1.10,2013-08-16 02:09:00,
2013-08-15 20:27:00,62.7,27.0,29.84,WNW,284,3.0,4.0,26,0.00,,,0.00,weatherlink.com 1.10,2013-08-16 02:27:00,
2013-08-15 20:39:00,62.4,27.0,29.85,West,275,2.0,5.0,26,0.00,,,0.00,weatherlink.com 1.10,2013-08-16 02:39:00,
2013-08-15 20:54:00,61.0,36.0,29.85,NE,42,2.0,5.0,39,0.00,,,0.00,weatherlink.com 1.10,2013-08-16 02:54:00,
2013-08-15 21:09:00,59.8,39.0,29.86,NE,44,1.0,3.0,46,0.00,,,0.00,weatherlink.com 1.10,2013-08-16 03:09:00,
2013-08-15 21:24:00,58.6,38.0,29.86,SSE,150,1.0,4.0,47,0.00,,,0.00,weatherlink.com 1.10,2013-08-16 03:24:00,
2013-08-15 21:39:00,57.8,42.0,29.86,SE,128,1.0,4.0,55,0.00,,,0.00,weatherlink.com 1.10,2013-08-16 03:39:00,
2013-08-15 21:54:00,57.4,43.0,29.86,ESE,104,1.0,7.0,58,0.00,,,0.00,weatherlink.com 1.10,2013-08-16 03:54:00,
2013-08-15 22:10:00,56.5,43.0,29.85,ESE,113,0.0,4.0,60,0.00,,,0.00,weatherlink.com 1.10,2013-08-16 04:10:00,
2013-08-15 22:25:00,55.8,43.0,29.84,East,101,0.0,4.0,62,0.00,,,0.00,weatherlink.com 1.10,2013-08-16 04:25:00,
2013-08-15 22:40:00,55.0,42.0,29.85,East,97,0.0,5.0,63,0.00,,,0.00,weatherlink.com 1.10,2013-08-16 04:40:00,
2013-08-15 22:55:00,54.1,42.0,29.85,East,97,0.0,0.0,63,0.00,,,0.00,weatherlink.com 1.10,2013-08-16 04:55:00,
2013-08-15 23:10:00,53.6,41.0,29.85,South,180,0.0,2.0,63,0.00,,,0.00,weatherlink.com 1.10,2013-08-16 05:10:00,
2013-08-15 23:25:00,53.7,41.0,29.85,South,178,0.0,0.0,63,0.00,,,0.00,weatherlink.com 1.10,2013-08-16 05:25:00,
2013-08-15 23:40:00,53.5,42.0,29.85,SSE,165,0.0,0.0,66,0.00,,,0.00,weatherlink.com 1.10,2013-08-16 05:40:00,
2013-08-15 23:55:00,52.3,42.0,29.85,SSE,165,0.0,0.0,67,0.00,,,0.00,weatherlink.com 1.10,2013-08-16 05:55:00,